createdAt,value
2022-08-19T00:01:53.030Z,24.50
2022-08-19T00:04:25.340Z,24.40
2022-08-19T00:06:54.025Z,24.40
2022-08-19T00:09:24.683Z,24.40
2022-08-19T00:11:56.457Z,24.10
2022-08-19T00:14:25.966Z,24.10
2022-08-19T00:16:55.881Z,24.00
2022-08-19T00:19:25.472Z,24.20
2022-08-19T00:21:53.974Z,24.20
2022-08-19T00:24:22.113Z,24.20
2022-08-19T00:26:51.249Z,24.30
2022-08-19T00:29:22.744Z,24.20
2022-08-19T00:31:54.236Z,24.20
2022-08-19T00:34:24.295Z,24.20
2022-08-19T00:36:52.120Z,24.10
2022-08-19T00:39:20.319Z,24.00
2022-08-19T00:41:49.982Z,24.00
2022-08-19T00:44:27.069Z,24.00
2022-08-19T00:46:58.027Z,23.90
2022-08-19T00:49:33.601Z,23.90
2022-08-19T00:52:06.289Z,23.80
2022-08-19T00:54:34.170Z,23.90
2022-08-19T00:57:04.154Z,23.90
2022-08-19T00:59:58.740Z,23.90
2022-08-19T01:02:20.471Z,23.90
2022-08-19T01:04:50.335Z,23.90
2022-08-19T01:07:19.767Z,23.90
2022-08-19T01:09:48.116Z,23.90
2022-08-19T01:12:16.727Z,24.00
2022-08-19T01:14:45.173Z,24.00
2022-08-19T01:17:13.573Z,24.00
2022-08-19T01:19:44.875Z,23.90
2022-08-19T01:22:24.502Z,24.00
2022-08-19T01:24:57.072Z,23.90
2022-08-19T01:27:24.836Z,23.70
2022-08-19T01:29:52.632Z,23.60
2022-08-19T01:32:33.395Z,23.50
2022-08-19T01:35:03.659Z,23.40
2022-08-19T01:37:32.448Z,23.50
2022-08-19T01:40:04.309Z,23.30
2022-08-19T01:42:34.226Z,23.40
2022-08-19T01:45:02.056Z,23.40
2022-08-19T01:47:29.947Z,23.20
2022-08-19T01:49:59.952Z,23.30
2022-08-19T01:52:28.261Z,23.20
2022-08-19T01:54:56.080Z,23.20
2022-08-19T01:57:25.351Z,23.10
2022-08-19T01:59:53.572Z,23.20
2022-08-19T02:02:21.587Z,23.20
2022-08-19T02:04:49.621Z,23.20
2022-08-19T02:07:17.421Z,23.20
2022-08-19T02:09:45.197Z,23.30
2022-08-19T02:12:13.001Z,23.30
2022-08-19T02:14:42.476Z,23.30
2022-08-19T02:17:10.591Z,23.40
2022-08-19T02:19:39.036Z,23.60
2022-08-19T02:22:08.978Z,23.60
2022-08-19T02:24:36.792Z,23.50
2022-08-19T02:27:05.747Z,23.50
2022-08-19T02:29:34.706Z,23.40
2022-08-19T02:32:05.311Z,23.40
2022-08-19T02:34:34.213Z,229.40
2022-08-19T02:37:03.852Z,229.40
2022-08-19T02:39:30.971Z,229.40
2022-08-19T02:42:00.676Z,229.40
2022-08-19T02:44:31.835Z,229.40
2022-08-19T02:47:00.103Z,229.40
2022-08-19T02:49:29.382Z,229.40
2022-08-19T02:52:02.318Z,229.40
2022-08-19T02:54:31.218Z,229.40
2022-08-19T02:56:59.398Z,229.40
2022-08-19T02:59:27.401Z,229.40
2022-08-19T03:01:55.180Z,23.00
2022-08-19T03:04:23.948Z,23.10
2022-08-19T03:06:53.401Z,23.20
2022-08-19T03:09:22.057Z,23.30
2022-08-19T03:11:52.748Z,23.10
2022-08-19T03:14:20.863Z,23.20
2022-08-19T03:16:51.530Z,23.10
2022-08-19T03:19:21.286Z,23.10
2022-08-19T03:21:49.980Z,23.10
2022-08-19T03:24:19.979Z,23.10
2022-08-19T03:26:49.963Z,23.20
2022-08-19T03:29:30.359Z,23.30
2022-08-19T03:31:59.640Z,23.20
2022-08-19T03:34:31.814Z,23.20
2022-08-19T03:37:05.538Z,23.00
2022-08-19T03:39:34.847Z,23.00
2022-08-19T03:42:38.203Z,23.10
2022-08-19T03:44:51.523Z,23.10
2022-08-19T03:47:19.354Z,23.20
2022-08-19T03:49:47.212Z,23.20
2022-08-19T03:52:15.218Z,23.20
2022-08-19T03:54:44.507Z,23.00
2022-08-19T03:57:12.530Z,23.00
2022-08-19T03:59:42.893Z,23.00
2022-08-19T04:02:12.625Z,22.80
2022-08-19T04:04:42.361Z,22.90
2022-08-19T04:07:11.921Z,22.90
2022-08-19T04:09:39.775Z,22.80
2022-08-19T04:12:09.849Z,22.60
2022-08-19T04:14:37.668Z,22.50
2022-08-19T04:17:06.603Z,22.50
2022-08-19T04:19:36.049Z,22.50
2022-08-19T04:22:05.397Z,22.40
2022-08-19T04:24:33.864Z,22.30
2022-08-19T04:27:02.942Z,22.10
2022-08-19T04:29:32.210Z,22.20
2022-08-19T04:32:09.221Z,22.20
2022-08-19T04:35:02.446Z,22.10
2022-08-19T04:37:27.495Z,22.20
2022-08-19T04:40:19.274Z,22.20
2022-08-19T04:42:47.158Z,22.30
2022-08-19T04:45:17.388Z,22.40
2022-08-19T04:47:49.401Z,22.20
2022-08-19T04:50:27.580Z,22.20
2022-08-19T04:52:56.925Z,22.30
2022-08-19T04:55:26.466Z,22.30
2022-08-19T04:57:54.648Z,22.20
2022-08-19T05:00:24.003Z,22.30
2022-08-19T05:02:52.232Z,22.10
2022-08-19T05:05:20.661Z,22.20
2022-08-19T05:07:48.498Z,22.20
2022-08-19T05:10:16.292Z,22.10
2022-08-19T05:12:44.053Z,22.10
2022-08-19T05:15:12.320Z,22.10
2022-08-19T05:18:03.200Z,22.10
2022-08-19T05:20:48.289Z,22.10
2022-08-19T05:23:20.585Z,22.10
2022-08-19T05:25:50.091Z,22.10
2022-08-19T05:28:18.200Z,22.00
2022-08-19T05:30:47.450Z,22.00
2022-08-19T05:33:16.850Z,22.10
2022-08-19T05:35:45.106Z,22.20
2022-08-19T05:38:13.277Z,22.10
2022-08-19T05:40:41.402Z,22.20
2022-08-19T05:43:10.386Z,22.30
2022-08-19T05:45:41.183Z,22.40
2022-08-19T05:48:11.961Z,22.50
2022-08-19T05:50:43.082Z,22.40
2022-08-19T05:53:11.266Z,22.50
2022-08-19T05:55:40.550Z,22.50
2022-08-19T05:58:09.001Z,22.50
2022-08-19T06:00:37.703Z,22.20
2022-08-19T06:03:13.063Z,22.00
2022-08-19T06:05:49.485Z,22.00
2022-08-19T06:08:19.456Z,22.20
2022-08-19T06:10:47.530Z,22.20
2022-08-19T06:13:15.737Z,22.50
2022-08-19T06:15:45.226Z,22.60
2022-08-19T06:18:13.096Z,22.50
2022-08-19T06:20:55.536Z,22.70
2022-08-19T06:23:24.416Z,22.70
2022-08-19T06:25:52.683Z,22.80
2022-08-19T06:28:20.942Z,22.90
2022-08-19T06:30:49.092Z,22.80
2022-08-19T06:33:16.922Z,22.80
2022-08-19T06:35:47.846Z,22.80
2022-08-19T06:38:15.959Z,22.80
2022-08-19T06:43:18.559Z,22.90
2022-08-19T06:45:47.782Z,22.70
2022-08-19T06:48:15.665Z,22.60
2022-08-19T06:50:48.437Z,22.70
2022-08-19T06:53:18.683Z,22.80
2022-08-19T06:55:46.549Z,22.70
2022-08-19T06:58:15.102Z,22.60
2022-08-19T07:00:42.976Z,22.40
2022-08-19T07:03:13.331Z,22.60
2022-08-19T07:05:43.118Z,22.60
2022-08-19T07:08:15.403Z,22.60
2022-08-19T07:10:46.693Z,22.50
2022-08-19T07:13:14.688Z,22.70
2022-08-19T07:15:42.846Z,22.80
2022-08-19T07:18:11.489Z,22.70
2022-08-19T07:20:40.326Z,22.60
2022-08-19T07:23:10.540Z,22.70
2022-08-19T07:25:53.004Z,22.70
2022-08-19T07:28:24.784Z,22.50
2022-08-19T07:30:53.637Z,22.40
2022-08-19T07:33:22.019Z,22.70
2022-08-19T07:35:50.797Z,22.80
2022-08-19T07:38:19.159Z,23.00
2022-08-19T07:40:48.359Z,23.00
2022-08-19T07:43:18.247Z,23.10
2022-08-19T07:45:47.966Z,23.20
2022-08-19T07:48:16.512Z,23.20
2022-08-19T07:50:44.347Z,23.30
2022-08-19T07:53:12.836Z,23.40
2022-08-19T07:55:43.723Z,23.40
2022-08-19T07:58:15.613Z,23.50
2022-08-19T08:00:44.059Z,23.50
2022-08-19T08:03:12.610Z,23.40
2022-08-19T08:05:57.912Z,23.40
2022-08-19T08:08:44.324Z,23.40
2022-08-19T08:11:19.851Z,23.40
2022-08-19T08:14:00.555Z,23.50
2022-08-19T08:16:32.180Z,23.50
2022-08-19T08:19:00.309Z,23.50
2022-08-19T08:21:29.645Z,23.80
2022-08-19T08:23:57.511Z,23.90
2022-08-19T08:26:25.969Z,23.90
2022-08-19T08:28:55.700Z,24.00
2022-08-19T08:31:24.383Z,24.20
2022-08-19T08:33:52.130Z,24.00
2022-08-19T08:36:19.958Z,24.10
2022-08-19T08:38:48.073Z,24.00
2022-08-19T08:41:24.515Z,24.00
2022-08-19T08:43:56.329Z,24.20
2022-08-19T08:46:30.523Z,24.40
2022-08-19T08:49:04.708Z,24.50
2022-08-19T08:51:37.265Z,24.60
2022-08-19T08:54:12.406Z,24.60
2022-08-19T08:56:41.622Z,24.40
2022-08-19T08:59:18.148Z,24.70
2022-08-19T09:01:45.980Z,24.50
2022-08-19T09:04:14.972Z,24.50
2022-08-19T09:06:52.672Z,24.40
2022-08-19T09:09:29.450Z,24.70
2022-08-19T09:12:02.895Z,24.70
2022-08-19T09:14:51.070Z,24.70
2022-08-19T09:17:21.227Z,25.10
2022-08-19T09:19:53.551Z,25.40
2022-08-19T09:22:25.796Z,25.50
2022-08-19T09:24:56.216Z,25.90
2022-08-19T09:27:42.569Z,25.80
2022-08-19T09:30:17.121Z,25.70
2022-08-19T09:32:45.584Z,26.10
2022-08-19T09:35:15.883Z,26.20
2022-08-19T09:37:44.880Z,26.50
2022-08-19T09:40:15.767Z,25.80
2022-08-19T09:42:50.216Z,25.60
2022-08-19T09:45:23.598Z,26.10
2022-08-19T09:47:54.255Z,26.40
2022-08-19T09:50:23.652Z,26.50
2022-08-19T09:52:55.739Z,26.60
2022-08-19T09:55:31.268Z,26.40
2022-08-19T09:58:01.871Z,26.30
2022-08-19T10:00:32.349Z,26.60
2022-08-19T10:03:00.319Z,26.70
2022-08-19T10:05:48.455Z,26.70
2022-08-19T10:08:18.118Z,26.50
2022-08-19T10:10:47.041Z,26.30
2022-08-19T10:13:16.993Z,26.70
2022-08-19T10:15:48.207Z,27.00
2022-08-19T10:18:19.098Z,27.10
2022-08-19T10:20:51.463Z,26.70
2022-08-19T10:23:21.667Z,27.10
2022-08-19T10:25:49.801Z,27.40
2022-08-19T10:28:19.217Z,27.60
2022-08-19T10:30:49.188Z,27.60
2022-08-19T10:33:27.113Z,27.80
2022-08-19T10:36:07.923Z,28.00
2022-08-19T10:38:36.443Z,28.20
2022-08-19T10:41:13.916Z,28.10
2022-08-19T10:43:42.330Z,27.90
2022-08-19T10:46:14.245Z,28.20
2022-08-19T10:48:45.541Z,27.90
2022-08-19T10:51:31.486Z,28.00
2022-08-19T10:54:00.228Z,28.00
2022-08-19T10:56:46.062Z,27.70
2022-08-19T10:59:15.105Z,28.10
2022-08-19T11:01:47.660Z,28.20
2022-08-19T11:04:19.389Z,27.80
2022-08-19T11:06:48.405Z,28.10
2022-08-19T11:09:17.636Z,28.30
2022-08-19T11:11:46.421Z,28.20
2022-08-19T11:14:16.411Z,28.50
2022-08-19T11:16:45.740Z,28.60
2022-08-19T11:19:15.248Z,28.50
2022-08-19T11:21:45.259Z,28.70
2022-08-19T11:24:21.084Z,28.80
2022-08-19T11:26:50.662Z,28.90
2022-08-19T11:29:20.742Z,28.80
2022-08-19T11:31:51.438Z,28.70
2022-08-19T11:34:22.385Z,28.80
2022-08-19T11:36:51.889Z,29.20
2022-08-19T11:39:22.836Z,29.30
2022-08-19T11:41:50.710Z,29.40
2022-08-19T11:44:18.540Z,29.20
2022-08-19T11:46:47.919Z,29.40
2022-08-19T11:49:19.621Z,29.40
2022-08-19T11:51:48.010Z,29.50
2022-08-19T11:54:17.225Z,29.20
2022-08-19T11:56:46.487Z,29.30
2022-08-19T11:59:15.015Z,29.20
2022-08-19T12:01:43.678Z,29.40
2022-08-19T12:04:11.994Z,29.30
2022-08-19T12:06:43.076Z,29.20
2022-08-19T12:09:12.315Z,29.30
2022-08-19T12:11:41.425Z,29.60
2022-08-19T12:14:14.568Z,29.70
2022-08-19T12:16:51.261Z,29.80
2022-08-19T12:19:22.421Z,30.00
2022-08-19T12:21:54.024Z,29.90
2022-08-19T12:24:24.299Z,29.70
2022-08-19T12:26:54.425Z,29.90
2022-08-19T12:29:30.538Z,29.70
2022-08-19T12:32:02.168Z,29.90
2022-08-19T12:34:31.936Z,30.10
2022-08-19T12:37:03.840Z,30.20
2022-08-19T12:39:32.535Z,30.40
2022-08-19T12:42:00.596Z,30.50
2022-08-19T12:44:29.389Z,30.70
2022-08-19T12:47:00.723Z,30.60
2022-08-19T12:49:53.186Z,30.80
2022-08-19T12:52:22.938Z,30.80
2022-08-19T12:54:55.028Z,30.60
2022-08-19T12:57:31.538Z,30.60
2022-08-19T13:00:04.629Z,30.20
2022-08-19T13:02:38.544Z,30.30
2022-08-19T13:05:12.854Z,30.60
2022-08-19T13:07:44.645Z,30.70
2022-08-19T13:10:16.280Z,30.90
2022-08-19T13:12:44.465Z,30.80
2022-08-19T13:15:15.127Z,30.70
2022-08-19T13:17:43.367Z,30.70
2022-08-19T13:20:12.926Z,30.80
2022-08-19T13:22:42.064Z,30.90
2022-08-19T13:25:10.779Z,30.70
2022-08-19T13:27:39.554Z,31.00
2022-08-19T13:30:27.102Z,31.20
2022-08-19T13:33:15.234Z,31.10
2022-08-19T13:35:46.440Z,31.20
2022-08-19T13:38:17.310Z,31.10
2022-08-19T13:40:45.145Z,31.20
2022-08-19T13:43:22.621Z,31.30
2022-08-19T13:45:53.568Z,31.40
2022-08-19T13:48:21.497Z,31.20
2022-08-19T13:50:50.663Z,31.10
2022-08-19T13:53:20.229Z,31.20
2022-08-19T13:55:48.183Z,31.00
2022-08-19T13:58:16.436Z,31.20
2022-08-19T14:00:49.160Z,31.40
2022-08-19T14:03:17.037Z,31.20
2022-08-19T14:05:44.838Z,31.00
2022-08-19T14:08:14.929Z,31.30
2022-08-19T14:10:45.676Z,31.40
2022-08-19T14:13:16.862Z,31.40
2022-08-19T14:15:44.788Z,31.60
2022-08-19T14:18:13.059Z,31.50
2022-08-19T14:20:40.959Z,31.70
2022-08-19T14:23:08.750Z,31.90
2022-08-19T14:25:37.057Z,229.40
2022-08-19T14:28:07.669Z,229.40
2022-08-19T14:30:38.618Z,229.40
2022-08-19T14:33:07.962Z,229.40
2022-08-19T14:35:36.772Z,31.90
2022-08-19T14:38:05.793Z,31.80
2022-08-19T14:40:33.921Z,229.40
2022-08-19T14:43:05.046Z,31.80
2022-08-19T14:45:36.824Z,31.90
2022-08-19T14:48:05.634Z,31.90
2022-08-19T14:50:33.975Z,-53.70
2022-08-19T14:53:09.105Z,-66.20
2022-08-19T14:55:43.422Z,-66.20
2022-08-19T14:58:29.599Z,229.40
2022-08-19T15:01:00.874Z,32.00
2022-08-19T15:03:29.134Z,31.80
2022-08-19T15:05:58.378Z,31.80
2022-08-19T15:08:26.973Z,32.00
2022-08-19T15:10:55.390Z,31.60
2022-08-19T15:13:23.578Z,31.70
2022-08-19T15:15:52.681Z,31.70
2022-08-19T15:18:22.716Z,31.70
2022-08-19T15:20:51.039Z,31.70
2022-08-19T15:23:20.309Z,31.80
2022-08-19T15:25:48.224Z,31.90
2022-08-19T15:28:17.325Z,31.90
2022-08-19T15:30:45.388Z,32.00
2022-08-19T15:33:15.093Z,32.00
2022-08-19T15:35:45.446Z,32.00
2022-08-19T15:38:13.958Z,31.90
2022-08-19T15:40:43.155Z,31.90
2022-08-19T15:43:11.337Z,31.90
2022-08-19T15:45:40.315Z,31.90
2022-08-19T15:48:08.129Z,31.50
2022-08-19T15:50:35.960Z,31.80
2022-08-19T15:53:09.237Z,31.60
2022-08-19T15:55:42.998Z,31.50
2022-08-19T15:58:30.675Z,31.60
2022-08-19T16:01:17.828Z,31.30
2022-08-19T16:04:06.044Z,31.40
2022-08-19T16:06:44.776Z,31.50
2022-08-19T16:09:15.512Z,31.50
2022-08-19T16:11:45.819Z,31.10
2022-08-19T16:14:14.691Z,31.10
2022-08-19T16:16:42.574Z,31.40
2022-08-19T16:19:12.032Z,31.40
2022-08-19T16:21:41.559Z,31.40
2022-08-19T16:24:13.012Z,31.40
2022-08-19T16:26:43.380Z,31.40
2022-08-19T16:29:13.009Z,31.10
2022-08-19T16:31:43.367Z,31.10
2022-08-19T16:34:12.265Z,31.10
2022-08-19T16:36:41.767Z,31.00
2022-08-19T16:39:10.417Z,31.20
2022-08-19T16:41:38.580Z,31.20
2022-08-19T16:44:09.961Z,31.30
2022-08-19T16:46:40.237Z,31.20
2022-08-19T16:49:09.200Z,31.30
2022-08-19T16:51:37.875Z,31.30
2022-08-19T16:54:06.458Z,31.20
2022-08-19T16:56:34.597Z,31.20
2022-08-19T16:59:02.628Z,31.10
2022-08-19T17:01:32.416Z,31.20
2022-08-19T17:04:00.349Z,31.10
2022-08-19T17:06:30.921Z,31.10
2022-08-19T17:09:01.984Z,31.00
2022-08-19T17:11:32.957Z,30.90
2022-08-19T17:14:01.787Z,30.90
2022-08-19T17:16:34.916Z,30.90
2022-08-19T17:19:06.488Z,30.90
2022-08-19T17:21:36.237Z,30.70
2022-08-19T17:24:07.345Z,30.80
2022-08-19T17:26:37.684Z,30.70
2022-08-19T17:29:06.327Z,30.70
2022-08-19T17:31:35.718Z,30.60
2022-08-19T17:34:03.956Z,30.50
2022-08-19T17:36:33.895Z,30.50
2022-08-19T17:39:04.151Z,30.50
2022-08-19T17:41:34.174Z,30.50
2022-08-19T17:44:02.415Z,30.50
2022-08-19T17:46:30.612Z,30.50
2022-08-19T17:49:00.068Z,30.40
2022-08-19T17:51:41.932Z,30.40
2022-08-19T17:54:12.014Z,30.40
2022-08-19T17:56:40.396Z,30.40
2022-08-19T17:59:12.866Z,30.30
2022-08-19T18:01:53.399Z,30.30
2022-08-19T18:04:24.763Z,30.30
2022-08-19T18:06:54.696Z,30.10
2022-08-19T18:09:25.097Z,30.00
2022-08-19T18:11:54.561Z,30.00
2022-08-19T18:14:32.931Z,30.00
2022-08-19T18:17:05.405Z,30.00
2022-08-19T18:19:42.028Z,29.90
2022-08-19T18:22:12.090Z,29.90
2022-08-19T18:24:40.786Z,29.90
2022-08-19T18:27:08.573Z,29.80
2022-08-19T18:29:38.356Z,29.60
2022-08-19T18:32:07.143Z,29.50
2022-08-19T18:34:38.398Z,29.50
2022-08-19T18:37:06.356Z,29.50
2022-08-19T18:39:51.858Z,29.40
2022-08-19T18:42:37.540Z,29.30
2022-08-19T18:45:24.386Z,29.30
2022-08-19T18:48:18.430Z,29.20
2022-08-19T18:50:57.865Z,29.10
2022-08-19T18:53:26.201Z,29.10
2022-08-19T18:55:55.134Z,29.00
2022-08-19T18:58:26.360Z,28.80
2022-08-19T19:00:56.861Z,28.90
2022-08-19T19:03:25.558Z,28.90
2022-08-19T19:05:53.748Z,28.70
2022-08-19T19:08:27.354Z,28.60
2022-08-19T19:10:56.789Z,28.60
2022-08-19T19:13:24.684Z,28.50
2022-08-19T19:15:54.498Z,28.50
2022-08-19T19:18:22.284Z,28.40
2022-08-19T19:20:50.061Z,28.40
2022-08-19T19:23:18.021Z,28.30
2022-08-19T19:25:51.015Z,28.20
2022-08-19T19:28:25.322Z,28.00
2022-08-19T19:30:54.517Z,28.00
2022-08-19T19:33:25.302Z,27.90
2022-08-19T19:35:53.427Z,27.70
2022-08-19T19:38:21.226Z,27.60
2022-08-19T19:40:50.443Z,27.60
2022-08-19T19:43:18.450Z,27.60
2022-08-19T19:45:48.255Z,27.50
2022-08-19T19:48:16.439Z,27.50
2022-08-19T19:50:44.852Z,27.50
2022-08-19T19:53:15.073Z,27.40
2022-08-19T19:55:43.184Z,27.50
2022-08-19T19:58:12.335Z,27.50
2022-08-19T20:00:40.247Z,27.60
2022-08-19T20:03:08.136Z,27.60
2022-08-19T20:05:35.901Z,27.60
2022-08-19T20:08:21.639Z,27.50
2022-08-19T20:10:49.483Z,27.60
2022-08-19T20:13:18.698Z,27.50
2022-08-19T20:15:46.627Z,27.50
2022-08-19T20:18:14.791Z,27.30
2022-08-19T20:20:42.706Z,27.40
2022-08-19T20:23:10.519Z,27.30
2022-08-19T20:25:39.112Z,27.20
2022-08-19T20:28:06.993Z,27.20
2022-08-19T20:30:36.229Z,27.20
2022-08-19T20:33:06.979Z,27.10
2022-08-19T20:35:36.337Z,27.00
2022-08-19T20:38:08.523Z,26.90
2022-08-19T20:40:37.783Z,26.90
2022-08-19T20:43:09.905Z,26.80
2022-08-19T20:45:39.578Z,26.80
2022-08-19T20:48:09.139Z,26.80
2022-08-19T20:50:39.398Z,26.80
2022-08-19T20:53:12.854Z,26.70
2022-08-19T20:55:40.992Z,26.70
2022-08-19T20:58:11.966Z,26.60
2022-08-19T21:00:41.579Z,26.60
2022-08-19T21:03:09.430Z,26.60
2022-08-19T21:05:37.214Z,26.60
2022-08-19T21:08:05.371Z,26.60
2022-08-19T21:10:33.610Z,26.60
2022-08-19T21:13:03.729Z,26.40
2022-08-19T21:15:32.022Z,26.50
2022-08-19T21:18:01.173Z,26.40
2022-08-19T21:20:28.896Z,26.30
2022-08-19T21:22:56.681Z,26.30
2022-08-19T21:25:24.758Z,26.20
2022-08-19T21:27:52.495Z,26.10
2022-08-19T21:30:20.498Z,26.10
2022-08-19T21:32:51.944Z,26.10
2022-08-19T21:35:23.486Z,26.10
2022-08-19T21:37:51.320Z,26.00
2022-08-19T21:40:20.000Z,26.00
2022-08-19T21:42:48.234Z,26.20
2022-08-19T21:45:17.418Z,26.20
2022-08-19T21:47:45.618Z,26.20
2022-08-19T21:50:13.841Z,26.10
2022-08-19T21:52:43.119Z,26.10
2022-08-19T21:55:12.083Z,25.90
2022-08-19T21:57:41.411Z,25.90
2022-08-19T22:00:14.445Z,25.90
2022-08-19T22:02:44.128Z,25.90
2022-08-19T22:05:12.427Z,26.00
2022-08-19T22:07:42.632Z,26.00
2022-08-19T22:10:12.023Z,26.00
2022-08-19T22:12:47.303Z,26.10
2022-08-19T22:15:22.152Z,26.20
2022-08-19T22:17:50.816Z,26.20
2022-08-19T22:20:22.376Z,26.20
2022-08-19T22:22:52.728Z,26.20
2022-08-19T22:25:31.304Z,26.20
2022-08-19T22:28:01.556Z,26.20
2022-08-19T22:30:33.443Z,26.10
2022-08-19T22:33:04.811Z,26.10
2022-08-19T22:35:35.846Z,25.90
2022-08-19T22:38:06.300Z,25.90
2022-08-19T22:40:39.388Z,25.70
2022-08-19T22:43:09.716Z,25.60
2022-08-19T22:45:37.788Z,25.80
2022-08-19T22:48:07.758Z,25.70
2022-08-19T22:50:35.991Z,25.70
2022-08-19T22:53:04.519Z,25.80
2022-08-19T22:55:32.419Z,25.70
2022-08-19T22:58:01.914Z,25.60
2022-08-19T23:00:30.269Z,25.40
2022-08-19T23:02:58.897Z,25.50
2022-08-19T23:05:29.400Z,25.60
2022-08-19T23:07:58.821Z,25.50
2022-08-19T23:10:29.099Z,25.70
2022-08-19T23:12:59.134Z,25.60
2022-08-19T23:15:32.681Z,25.60
2022-08-19T23:18:04.937Z,25.40
2022-08-19T23:20:34.818Z,25.30
2022-08-19T23:23:04.998Z,25.40
2022-08-19T23:25:34.414Z,25.30
2022-08-19T23:28:20.777Z,25.50
2022-08-19T23:30:51.429Z,25.40
2022-08-19T23:33:24.573Z,25.30
2022-08-19T23:35:54.862Z,25.20
2022-08-19T23:38:23.715Z,25.30
2022-08-19T23:40:52.543Z,25.20
2022-08-19T23:43:24.412Z,25.10
2022-08-19T23:45:57.539Z,24.90
2022-08-19T23:48:28.364Z,24.90
2022-08-19T23:50:57.088Z,25.00
2022-08-19T23:53:25.135Z,24.90
2022-08-19T23:55:53.456Z,25.00
2022-08-19T23:58:22.255Z,24.90
